Time;durP1;ratioP1;P1;durP2;ratioP2;P2;SDS_P1;SDS_P2;PMS_P1;PMS_P2;Temp;Humidity;BMP_temperature;BMP_pressure;BME280_temperature;BME280_humidity;BME280_pressure;Samples;Min_cycle;Max_cycle;Signal;HPM_P1;HPM_P2
2023/07/26 00:00:00;;;;;;;12.63;2.60;;;;;;;-144.48;100.00;62369.91;5029565;28;20140;-66
2023/07/26 00:02:25;;;;;;;9.57;3.10;;;;;;;-144.48;100.00;62369.91;5020197;28;20402;-65
2023/07/26 00:04:51;;;;;;;8.50;2.42;;;;;;;-144.48;100.00;62369.91;5028596;28;20025;-66
2023/07/26 00:07:16;;;;;;;14.45;2.95;;;;;;;-144.48;100.00;62369.91;5027455;28;20029;-66
2023/07/26 00:09:41;;;;;;;16.73;4.20;;;;;;;-144.48;100.00;62369.91;5025085;28;20033;-66
2023/07/26 00:12:07;;;;;;;11.15;2.38;;;;;;;-144.48;100.00;62369.91;5029816;28;20025;-65
2023/07/26 00:14:33;;;;;;;7.43;2.08;;;;;;;-144.48;100.00;62369.91;5028182;28;20029;-65
2023/07/26 00:16:58;;;;;;;5.82;2.10;;;;;;;-144.48;100.00;62369.91;5029744;28;20683;-65
2023/07/26 00:19:23;;;;;;;5.45;2.25;;;;;;;-144.48;100.00;62369.91;5011049;28;20088;-64
2023/07/26 00:21:49;;;;;;;16.40;2.10;;;;;;;-144.48;100.00;62369.91;5029223;28;20528;-67
2023/07/26 00:24:15;;;;;;;7.28;2.20;;;;;;;-144.48;100.00;62369.91;5028319;28;20065;-66
2023/07/26 00:26:41;;;;;;;7.60;2.22;;;;;;;-144.48;100.00;62369.91;5029970;28;20086;-65
2023/07/26 00:29:06;;;;;;;5.45;1.83;;;;;;;-144.48;100.00;62369.91;5028742;28;20036;-66
2023/07/26 00:31:32;;;;;;;15.43;2.35;;;;;;;-144.48;100.00;62369.91;5029721;28;20087;-65
2023/07/26 00:33:57;;;;;;;7.75;2.17;;;;;;;-144.48;100.00;62369.91;5025055;28;20022;-63
2023/07/26 00:36:22;;;;;;;4.10;2.00;;;;;;;-144.48;100.00;62369.91;5025685;28;20021;-63
2023/07/26 00:38:48;;;;;;;6.30;2.25;;;;;;;-144.48;100.00;62369.91;5028482;28;20154;-67
2023/07/26 00:41:13;;;;;;;6.85;1.73;;;;;;;-144.48;100.00;62369.91;5011624;28;20017;-66
2023/07/26 00:43:39;;;;;;;8.68;2.05;;;;;;;-144.48;100.00;62369.91;5028034;28;20091;-67
2023/07/26 00:46:06;;;;;;;9.13;2.28;;;;;;;-144.48;100.00;62369.91;5029281;28;20013;-67
2023/07/26 00:48:32;;;;;;;7.13;1.92;;;;;;;-144.48;100.00;62369.91;5029405;28;20053;-67
2023/07/26 00:50:59;;;;;;;7.95;2.15;;;;;;;-144.48;100.00;62369.91;5028964;28;20082;-66
2023/07/26 00:53:26;;;;;;;9.32;1.80;;;;;;;-144.48;100.00;62369.91;5028572;28;20034;-65
2023/07/26 00:55:53;;;;;;;7.95;1.80;;;;;;;-144.48;100.00;62369.91;5010992;28;20029;-67
2023/07/26 00:58:19;;;;;;;6.25;1.60;;;;;;;-144.48;100.00;62369.91;5028805;28;20037;-66
2023/07/26 01:00:45;;;;;;;6.10;2.05;;;;;;;-144.48;100.00;62369.91;5029179;28;20430;-66
2023/07/26 01:03:10;;;;;;;5.57;1.30;;;;;;;-144.48;100.00;62369.91;5028609;28;20025;-67
2023/07/26 01:05:49;;;;;;;5.85;1.80;;;;;;;-144.48;100.00;62369.91;5027916;28;20472;-66
2023/07/26 01:08:34;;;;;;;6.07;2.03;;;;;;;-144.48;100.00;62369.91;5025159;28;20256;-63
2023/07/26 01:11:08;;;;;;;9.93;2.38;;;;;;;-144.48;100.00;62369.91;5022315;28;20451;-68
2023/07/26 01:13:51;;;;;;;6.50;2.08;;;;;;;-144.48;100.00;62369.91;5009767;28;20029;-66
2023/07/26 01:16:17;;;;;;;10.65;2.22;;;;;;;-144.48;100.00;62369.91;5029160;28;20100;-66
2023/07/26 01:18:42;;;;;;;7.22;2.10;;;;;;;-144.48;100.00;62369.91;5029062;28;20526;-67
2023/07/26 01:21:07;;;;;;;10.77;2.10;;;;;;;-144.48;100.00;62369.91;5028294;28;20017;-64
2023/07/26 01:23:35;;;;;;;9.40;1.75;;;;;;;-144.48;100.00;62369.91;5045753;22;20083;-64
2023/07/26 01:26:00;;;;;;;4.85;1.50;;;;;;;-144.48;100.00;62369.91;5047628;28;20068;-64
2023/07/26 01:28:25;;;;;;;3.35;1.40;;;;;;;-144.48;100.00;62369.91;5047747;28;20056;-66
2023/07/26 01:30:51;;;;;;;7.28;1.80;;;;;;;-144.48;100.00;62369.91;5047466;28;20040;-65
2023/07/26 01:33:18;;;;;;;8.43;2.00;;;;;;;-144.48;100.00;62369.91;5034592;28;20025;-67
2023/07/26 01:35:44;;;;;;;3.40;1.77;;;;;;;-144.48;100.00;62369.91;5019754;28;20113;-64
2023/07/26 01:38:11;;;;;;;10.98;2.10;;;;;;;-144.48;100.00;62369.91;5027498;28;20021;-63
2023/07/26 01:40:38;;;;;;;6.22;1.83;;;;;;;-144.48;100.00;62369.91;5027533;28;20036;-66
2023/07/26 01:43:03;;;;;;;6.63;1.90;;;;;;;-144.48;100.00;62369.91;5027452;28;20048;-67
2023/07/26 01:45:29;;;;;;;7.28;1.92;;;;;;;-144.48;100.00;62369.91;5026225;28;20342;-67
2023/07/26 01:47:54;;;;;;;5.97;1.73;;;;;;;-144.48;100.00;62369.91;5027355;28;20164;-66
2023/07/26 01:50:20;;;;;;;6.85;1.63;;;;;;;-144.48;100.00;62369.91;5027002;28;20060;-63
2023/07/26 01:52:45;;;;;;;6.80;2.10;;;;;;;-144.48;100.00;62369.91;5029932;28;20044;-65
2023/07/26 01:55:10;;;;;;;8.23;1.67;;;;;;;-144.48;100.00;62369.91;5030211;28;20026;-63
2023/07/26 01:57:36;;;;;;;6.38;2.00;;;;;;;-144.48;100.00;62369.91;5031211;28;20096;-68
2023/07/26 02:00:01;;;;;;;8.77;2.00;;;;;;;-144.48;100.00;62369.91;5030772;28;20460;-65
2023/07/26 02:02:27;;;;;;;9.80;2.17;;;;;;;-144.48;100.00;62369.91;5030960;28;20508;-66
2023/07/26 02:04:52;;;;;;;4.05;1.67;;;;;;;-144.48;100.00;62369.91;5029723;28;20471;-64
2023/07/26 02:07:18;;;;;;;5.95;1.90;;;;;;;-144.48;100.00;62369.91;5028792;28;20172;-67
2023/07/26 02:09:43;;;;;;;5.72;1.80;;;;;;;-144.48;100.00;62369.91;5026070;28;20099;-65
2023/07/26 02:12:09;;;;;;;8.77;2.15;;;;;;;-144.48;100.00;62369.91;5030780;28;20453;-64
2023/07/26 02:14:34;;;;;;;7.35;1.83;;;;;;;-144.48;100.00;62369.91;5029512;28;20375;-68
2023/07/26 02:17:00;;;;;;;2.88;1.75;;;;;;;-144.48;100.00;62369.91;5031026;28;20483;-63
2023/07/26 02:19:25;;;;;;;6.25;2.25;;;;;;;-144.48;100.00;62369.91;5030207;28;20108;-67
2023/07/26 02:21:50;;;;;;;6.05;1.98;;;;;;;-144.48;100.00;62369.91;5030778;28;20053;-66
2023/07/26 02:24:16;;;;;;;8.25;1.60;;;;;;;-144.48;100.00;62369.91;5029811;28;20053;-66
2023/07/26 02:26:42;;;;;;;8.45;1.80;;;;;;;-144.48;100.00;62369.91;5030096;28;20116;-67
2023/07/26 02:29:08;;;;;;;8.95;1.70;;;;;;;-144.48;100.00;62369.91;5029967;28;20060;-66
2023/07/26 02:31:33;;;;;;;7.47;1.90;;;;;;;-144.48;100.00;62369.91;5009245;28;20495;-66
2023/07/26 02:33:59;;;;;;;4.35;1.83;;;;;;;-144.48;100.00;62369.91;5021506;28;20018;-65
2023/07/26 02:36:24;;;;;;;7.13;1.85;;;;;;;-144.48;100.00;62369.91;5026766;28;20113;-67
2023/07/26 02:38:50;;;;;;;14.05;2.40;;;;;;;-144.48;100.00;62369.91;5029859;28;20037;-66
2023/07/26 02:41:15;;;;;;;11.02;2.00;;;;;;;-144.48;100.00;62369.91;5030794;28;20037;-68
2023/07/26 02:43:41;;;;;;;6.78;2.10;;;;;;;-144.48;100.00;62369.91;5029450;28;20028;-63
2023/07/26 02:46:06;;;;;;;11.48;2.58;;;;;;;-144.48;100.00;62369.91;5030459;28;20022;-68
2023/07/26 02:48:32;;;;;;;5.53;2.25;;;;;;;-144.48;100.00;62369.91;5030298;28;20117;-66
2023/07/26 02:50:57;;;;;;;9.68;2.10;;;;;;;-144.48;100.00;62369.91;5030112;28;20049;-64
2023/07/26 02:53:23;;;;;;;6.22;1.52;;;;;;;-144.48;100.00;62369.91;5029998;28;20108;-66
2023/07/26 02:55:48;;;;;;;3.00;1.42;;;;;;;-144.48;100.00;62369.91;5030313;28;20424;-65
2023/07/26 02:58:14;;;;;;;8.95;1.80;;;;;;;-144.48;100.00;62369.91;5030570;28;20096;-67
2023/07/26 03:00:39;;;;;;;10.02;2.30;;;;;;;-144.48;100.00;62369.91;5031060;28;20119;-66
2023/07/26 03:03:04;;;;;;;4.97;1.63;;;;;;;-144.48;100.00;62369.91;5030039;28;20035;-68
2023/07/26 03:05:30;;;;;;;7.55;1.88;;;;;;;-144.48;100.00;62369.91;5030709;28;20025;-67
2023/07/26 03:07:56;;;;;;;6.22;1.80;;;;;;;-144.48;100.00;62369.91;5028485;28;20029;-67
2023/07/26 03:10:21;;;;;;;5.00;1.70;;;;;;;-144.48;100.00;62369.91;5027228;28;20088;-67
2023/07/26 03:12:47;;;;;;;6.78;1.88;;;;;;;-144.48;100.00;62369.91;5030723;28;20163;-66
2023/07/26 03:15:12;;;;;;;6.68;1.90;;;;;;;-144.48;100.00;62369.91;5030091;28;20022;-66
2023/07/26 03:17:37;;;;;;;9.65;2.00;;;;;;;-144.48;100.00;62369.91;5030797;28;20390;-65
2023/07/26 03:20:03;;;;;;;4.72;2.10;;;;;;;-144.48;100.00;62369.91;5030603;28;20024;-66
2023/07/26 03:22:28;;;;;;;6.32;1.80;;;;;;;-144.48;100.00;62369.91;5030015;28;20060;-65
2023/07/26 03:24:54;;;;;;;5.53;2.00;;;;;;;-144.48;100.00;62369.91;5029679;28;20033;-66
2023/07/26 03:27:19;;;;;;;3.42;1.52;;;;;;;-144.48;100.00;62369.91;5030036;28;20028;-63
2023/07/26 03:29:45;;;;;;;8.30;1.73;;;;;;;-144.48;100.00;62369.91;5011518;28;20021;-66
2023/07/26 03:32:10;;;;;;;3.83;2.15;;;;;;;-144.48;100.00;62369.91;5029256;28;20091;-67
2023/07/26 03:34:36;;;;;;;6.78;2.45;;;;;;;-144.48;100.00;62369.91;5021495;28;20033;-67
2023/07/26 03:37:02;;;;;;;9.63;2.10;;;;;;;-144.48;100.00;62369.91;5028742;28;20438;-66
2023/07/26 03:39:27;;;;;;;15.15;3.05;;;;;;;-144.48;100.00;62369.91;5029585;28;20022;-64
2023/07/26 03:41:53;;;;;;;5.43;1.73;;;;;;;-144.48;100.00;62369.91;5029127;28;20025;-66
2023/07/26 03:44:18;;;;;;;4.20;1.52;;;;;;;-144.48;100.00;62369.91;5027587;28;20459;-67
2023/07/26 03:46:44;;;;;;;4.03;1.60;;;;;;;-144.48;100.00;62369.91;5011040;28;20060;-66
2023/07/26 03:49:09;;;;;;;11.23;1.95;;;;;;;-144.48;100.00;62369.91;5028980;28;20114;-66
2023/07/26 03:51:35;;;;;;;9.63;2.17;;;;;;;-144.48;100.00;62369.91;5028459;28;20075;-68
2023/07/26 03:54:00;;;;;;;10.55;1.80;;;;;;;-144.48;100.00;62369.91;5028157;28;20045;-65
2023/07/26 03:56:25;;;;;;;6.43;2.53;;;;;;;-144.48;100.00;62369.91;5010859;28;20036;-64
2023/07/26 03:58:51;;;;;;;6.45;2.13;;;;;;;-144.48;100.00;62369.91;5028055;28;20036;-67
2023/07/26 04:01:16;;;;;;;7.53;1.75;;;;;;;-144.48;100.00;62369.91;5028866;28;20029;-62
2023/07/26 04:03:41;;;;;;;8.07;2.08;;;;;;;-144.48;100.00;62369.91;5028200;28;20025;-69
2023/07/26 04:06:11;;;;;;;9.70;1.77;;;;;;;-144.48;100.00;62369.91;5028943;28;20075;-65
2023/07/26 04:08:36;;;;;;;9.25;2.03;;;;;;;-144.48;100.00;62369.91;4996248;28;20051;-64
2023/07/26 04:11:02;;;;;;;5.95;1.88;;;;;;;-144.48;100.00;62369.91;5028466;28;20026;-67
2023/07/26 04:13:28;;;;;;;3.88;1.60;;;;;;;-144.48;100.00;62369.91;5027834;28;20044;-65
2023/07/26 04:15:53;;;;;;;6.95;1.98;;;;;;;-144.48;100.00;62369.91;5027616;28;20025;-69
2023/07/26 04:18:19;;;;;;;6.82;1.60;;;;;;;-144.48;100.00;62369.91;5028696;28;20029;-64
2023/07/26 04:20:44;;;;;;;5.20;1.45;;;;;;;-144.48;100.00;62369.91;5027853;28;20026;-67
2023/07/26 04:23:10;;;;;;;10.57;1.95;;;;;;;-144.48;100.00;62369.91;5027804;28;20093;-66
2023/07/26 04:25:35;;;;;;;7.75;1.83;;;;;;;-144.48;100.00;62369.91;5027983;28;20032;-64
2023/07/26 04:28:00;;;;;;;6.13;1.80;;;;;;;-144.48;100.00;62369.91;5028545;28;20179;-67
2023/07/26 04:30:26;;;;;;;10.30;2.38;;;;;;;-144.48;100.00;62369.91;5028408;28;20094;-63
2023/07/26 04:32:52;;;;;;;5.20;1.92;;;;;;;-144.48;100.00;62369.91;5028357;28;20049;-67
2023/07/26 04:35:17;;;;;;;5.53;1.80;;;;;;;-144.48;100.00;62369.91;5020696;28;20035;-66
2023/07/26 04:37:42;;;;;;;11.23;3.05;;;;;;;-144.48;100.00;62369.91;5028402;28;20432;-68
2023/07/26 04:40:08;;;;;;;4.65;2.17;;;;;;;-144.48;100.00;62369.91;5028112;28;20053;-65
2023/07/26 04:42:34;;;;;;;6.53;1.60;;;;;;;-144.48;100.00;62369.91;5028390;28;20025;-65
2023/07/26 04:45:00;;;;;;;13.70;2.50;;;;;;;-144.48;100.00;62369.91;5027186;28;20129;-65
2023/07/26 04:47:25;;;;;;;3.42;1.80;;;;;;;-144.48;100.00;62369.91;5028743;28;20056;-63
2023/07/26 04:49:50;;;;;;;5.13;1.92;;;;;;;-144.48;100.00;62369.91;5028193;28;20026;-67
2023/07/26 04:52:16;;;;;;;10.73;2.30;;;;;;;-144.48;100.00;62369.91;5028279;28;20037;-66
2023/07/26 04:54:41;;;;;;;4.65;1.85;;;;;;;-144.48;100.00;62369.91;5027654;28;20057;-66
2023/07/26 04:57:06;;;;;;;10.23;2.13;;;;;;;-144.48;100.00;62369.91;5010615;28;20565;-65
2023/07/26 04:59:32;;;;;;;7.95;2.03;;;;;;;-144.48;100.00;62369.91;5027948;28;20026;-66
2023/07/26 05:01:57;;;;;;;3.40;1.73;;;;;;;-144.48;100.00;62369.91;5028184;28;20108;-64
2023/07/26 05:04:22;;;;;;;8.85;1.52;;;;;;;-144.48;100.00;62369.91;5027135;28;20248;-66
2023/07/26 05:06:48;;;;;;;7.43;2.20;;;;;;;-144.48;100.00;62369.91;5026691;28;20028;-67
2023/07/26 05:09:13;;;;;;;9.13;1.83;;;;;;;-144.48;100.00;62369.91;5023340;28;20086;-63
2023/07/26 05:11:38;;;;;;;7.00;2.10;;;;;;;-144.48;100.00;62369.91;5028139;28;20022;-67
2023/07/26 05:14:04;;;;;;;9.40;2.17;;;;;;;-144.48;100.00;62369.91;5027320;28;20029;-63
2023/07/26 05:16:29;;;;;;;7.82;2.45;;;;;;;-144.48;100.00;62369.91;5028781;28;20026;-66
2023/07/26 05:18:57;;;;;;;7.90;2.20;;;;;;;-144.48;100.00;62369.91;5028245;28;20479;-68
2023/07/26 05:21:24;;;;;;;3.47;1.75;;;;;;;-144.48;100.00;62369.91;5028817;28;20125;-71
2023/07/26 05:23:49;;;;;;;7.82;1.90;;;;;;;-144.48;100.00;62369.91;5027607;28;20994;-63
2023/07/26 05:26:14;;;;;;;4.05;1.90;;;;;;;-144.48;100.00;62369.91;5029170;28;20224;-63
2023/07/26 05:28:40;;;;;;;10.07;1.75;;;;;;;-144.48;100.00;62369.91;5032426;28;20025;-63
2023/07/26 05:31:05;;;;;;;6.40;1.80;;;;;;;-144.48;100.00;62369.91;5032739;28;20025;-67
2023/07/26 05:33:31;;;;;;;3.75;1.88;;;;;;;-144.48;100.00;62369.91;5032178;28;20872;-67
2023/07/26 05:35:56;;;;;;;8.35;1.40;;;;;;;-144.48;100.00;62369.91;5006920;28;20092;-65
2023/07/26 05:38:21;;;;;;;9.00;1.77;;;;;;;-144.48;100.00;62369.91;5031720;28;20021;-67
2023/07/26 05:40:47;;;;;;;10.25;1.92;;;;;;;-144.48;100.00;62369.91;5032295;28;20064;-65
2023/07/26 05:43:12;;;;;;;8.70;1.90;;;;;;;-144.48;100.00;62369.91;5031073;28;20109;-63
2023/07/26 05:45:41;;;;;;;8.65;1.70;;;;;;;-144.48;100.00;62369.91;5031312;28;20048;-66
2023/07/26 05:48:06;;;;;;;;;;;;;;;-144.48;100.00;62369.91;5032156;28;20487;-66
2023/07/26 05:50:32;;;;;;;6.05;1.70;;;;;;;-144.48;100.00;62369.91;5030454;28;19909;-67
2023/07/26 05:52:58;;;;;;;6.75;1.83;;;;;;;-144.48;100.00;62369.91;5030879;28;20523;-67
2023/07/26 05:55:23;;;;;;;11.23;1.90;;;;;;;-144.48;100.00;62369.91;5030886;28;20033;-64
2023/07/26 05:57:48;;;;;;;3.80;1.48;;;;;;;-144.48;100.00;62369.91;5031273;28;20420;-67
2023/07/26 06:00:14;;;;;;;9.60;2.97;;;;;;;-144.48;100.00;62369.91;5031146;28;20022;-66
2023/07/26 06:02:39;;;;;;;7.18;1.73;;;;;;;-144.48;100.00;62369.91;5031937;28;20451;-67
2023/07/26 06:05:05;;;;;;;4.63;1.80;;;;;;;-144.48;100.00;62369.91;5030186;28;20029;-68
2023/07/26 06:07:31;;;;;;;13.07;2.10;;;;;;;-144.48;100.00;62369.91;5029157;28;20109;-68
2023/07/26 06:09:57;;;;;;;6.10;2.05;;;;;;;-144.48;100.00;62369.91;5031367;28;20021;-66
2023/07/26 06:12:22;;;;;;;8.32;2.15;;;;;;;-144.48;100.00;62369.91;5031334;28;20021;-63
2023/07/26 06:14:47;;;;;;;7.38;1.80;;;;;;;-144.48;100.00;62369.91;5030401;28;20025;-68
2023/07/26 06:17:13;;;;;;;11.82;2.85;;;;;;;-144.48;100.00;62369.91;5031225;28;20035;-65
2023/07/26 06:19:38;;;;;;;6.28;1.70;;;;;;;-144.48;100.00;62369.91;5031100;28;20104;-67
2023/07/26 06:22:05;;;;;;;7.95;2.10;;;;;;;-144.48;100.00;62369.91;5031196;28;20089;-65
2023/07/26 06:24:30;;;;;;;4.68;1.50;;;;;;;-144.48;100.00;62369.91;5030119;28;20355;-66
2023/07/26 06:26:55;;;;;;;12.25;2.53;;;;;;;-144.48;100.00;62369.91;5031232;28;20021;-67
2023/07/26 06:29:24;;;;;;;13.02;2.17;;;;;;;-144.48;100.00;62369.91;5030262;28;20461;-66
2023/07/26 06:31:49;;;;;;;6.50;1.92;;;;;;;-144.48;100.00;62369.91;5030218;28;20049;-66
2023/07/26 06:34:15;;;;;;;7.95;2.53;;;;;;;-144.48;100.00;62369.91;5024201;28;20123;-63
2023/07/26 06:36:40;;;;;;;7.82;1.63;;;;;;;-144.48;100.00;62369.91;5012464;28;20391;-67
2023/07/26 06:39:06;;;;;;;6.38;1.70;;;;;;;-144.48;100.00;62369.91;5030368;28;20034;-67
2023/07/26 06:41:31;;;;;;;8.45;2.00;;;;;;;-144.48;100.00;62369.91;5031274;28;20017;-66
2023/07/26 06:43:56;;;;;;;10.70;1.90;;;;;;;-144.48;100.00;62369.91;5029650;28;20487;-66
2023/07/26 06:46:22;;;;;;;10.38;1.90;;;;;;;-144.48;100.00;62369.91;5030874;28;20102;-65
2023/07/26 06:48:47;;;;;;;7.20;1.77;;;;;;;-144.48;100.00;62369.91;5031070;28;20149;-65
2023/07/26 06:51:13;;;;;;;9.55;1.60;;;;;;;-144.48;100.00;62369.91;5030886;28;20396;-66
2023/07/26 06:53:38;;;;;;;6.85;1.55;;;;;;;-144.48;100.00;62369.91;5029523;28;20048;-65
2023/07/26 06:56:04;;;;;;;9.40;2.05;;;;;;;-144.48;100.00;62369.91;5031126;28;20041;-67
2023/07/26 06:58:29;;;;;;;9.95;2.22;;;;;;;-144.48;100.00;62369.91;5030071;28;20041;-68
2023/07/26 07:00:55;;;;;;;8.90;2.13;;;;;;;-144.48;100.00;62369.91;5013135;28;20076;-67
2023/07/26 07:03:21;;;;;;;6.65;1.70;;;;;;;-144.48;100.00;62369.91;5012107;28;20061;-68
2023/07/26 07:05:46;;;;;;;8.80;1.90;;;;;;;-144.48;100.00;62369.91;5029815;28;20045;-66
2023/07/26 07:08:11;;;;;;;13.27;2.00;;;;;;;-144.48;100.00;62369.91;5025272;28;20448;-64
2023/07/26 07:10:37;;;;;;;4.03;1.38;;;;;;;-144.48;100.00;62369.91;5028024;28;20082;-65
2023/07/26 07:13:02;;;;;;;5.30;1.85;;;;;;;-144.48;100.00;62369.91;5030129;28;20550;-66
2023/07/26 07:15:28;;;;;;;6.13;1.70;;;;;;;-144.48;100.00;62369.91;5029385;28;20025;-66
2023/07/26 07:17:53;;;;;;;4.05;1.70;;;;;;;-144.48;100.00;62369.91;5029861;28;20029;-66
2023/07/26 07:20:19;;;;;;;5.43;1.90;;;;;;;-144.48;100.00;62369.91;5029316;28;20049;-67
2023/07/26 07:22:44;;;;;;;7.70;1.70;;;;;;;-144.48;100.00;62369.91;5029596;28;20027;-68
2023/07/26 07:25:09;;;;;;;8.32;1.73;;;;;;;-144.48;100.00;62369.91;5065677;22;20446;-65
2023/07/26 07:27:35;;;;;;;6.93;1.88;;;;;;;-144.48;100.00;62369.91;5050649;28;20433;-65
2023/07/26 07:30:01;;;;;;;6.78;1.75;;;;;;;-144.48;100.00;62369.91;5050625;28;20036;-65
2023/07/26 07:32:26;;;;;;;11.13;1.40;;;;;;;-144.48;100.00;62369.91;5032994;28;20020;-66
2023/07/26 07:34:52;;;;;;;5.95;1.80;;;;;;;-144.48;100.00;62369.91;5042695;28;20049;-67
2023/07/26 07:37:17;;;;;;;8.07;1.88;;;;;;;-144.48;100.00;62369.91;5050062;28;20020;-67
2023/07/26 07:39:42;;;;;;;7.90;1.50;;;;;;;-144.48;100.00;62369.91;5051914;28;20086;-66
2023/07/26 07:42:08;;;;;;;3.67;1.48;;;;;;;-144.48;100.00;62369.91;5052505;28;20039;-66
2023/07/26 07:44:33;;;;;;;4.30;1.50;;;;;;;-144.48;100.00;62369.91;5049236;28;20028;-67
2023/07/26 07:46:59;;;;;;;8.05;1.58;;;;;;;-144.48;100.00;62369.91;5033576;28;20029;-66
2023/07/26 07:49:24;;;;;;;4.35;1.60;;;;;;;-144.48;100.00;62369.91;5049652;28;20025;-65
2023/07/26 07:51:50;;;;;;;6.85;1.30;;;;;;;-144.48;100.00;62369.91;5050055;28;20115;-65
2023/07/26 07:54:16;;;;;;;6.00;1.30;;;;;;;-144.48;100.00;62369.91;5049501;28;20021;-67
2023/07/26 07:56:41;;;;;;;8.60;1.67;;;;;;;-144.48;100.00;62369.91;5050211;28;20099;-68
2023/07/26 07:59:07;;;;;;;5.28;1.38;;;;;;;-144.48;100.00;62369.91;5049337;28;20028;-66
2023/07/26 08:01:33;;;;;;;6.57;1.70;;;;;;;-144.48;100.00;62369.91;5050236;28;20108;-65
2023/07/26 08:03:59;;;;;;;6.00;1.70;;;;;;;-144.48;100.00;62369.91;5048817;28;20032;-66
2023/07/26 08:06:28;;;;;;;10.80;1.58;;;;;;;-144.48;100.00;62369.91;5032074;28;20037;-67
2023/07/26 08:08:54;;;;;;;5.07;1.65;;;;;;;-144.48;100.00;62369.91;5043516;28;20074;-67
2023/07/26 08:11:19;;;;;;;3.50;1.60;;;;;;;-144.48;100.00;62369.91;5050006;28;20491;-67
2023/07/26 08:13:45;;;;;;;6.45;1.48;;;;;;;-144.48;100.00;62369.91;5049255;28;20031;-67
2023/07/26 08:16:10;;;;;;;3.67;1.48;;;;;;;-144.48;100.00;62369.91;5050272;28;20037;-64
2023/07/26 08:18:37;;;;;;;5.57;1.52;;;;;;;-144.48;100.00;62369.91;5050116;28;20031;-67
2023/07/26 08:21:02;;;;;;;4.07;1.40;;;;;;;-144.48;100.00;62369.91;5049451;28;20040;-66
2023/07/26 08:23:28;;;;;;;6.47;1.40;;;;;;;-144.48;100.00;62369.91;5048545;28;20029;-66
2023/07/26 08:25:54;;;;;;;5.32;1.65;;;;;;;-144.48;100.00;62369.91;5049422;28;20021;-65
2023/07/26 08:28:19;;;;;;;3.85;1.35;;;;;;;-144.48;100.00;62369.91;5049330;28;20021;-68
2023/07/26 08:30:45;;;;;;;4.10;1.42;;;;;;;-144.48;100.00;62369.91;5049293;28;20052;-66
2023/07/26 08:33:10;;;;;;;2.90;1.40;;;;;;;-144.48;100.00;62369.91;5049703;28;20028;-64
2023/07/26 08:35:35;;;;;;;6.22;1.30;;;;;;;-144.48;100.00;62369.91;5041168;28;20079;-66
2023/07/26 08:38:01;;;;;;;11.80;1.42;;;;;;;-144.48;100.00;62369.91;5049308;28;20071;-66
2023/07/26 08:40:26;;;;;;;6.60;1.20;;;;;;;-144.48;100.00;62369.91;5049289;28;20111;-68
2023/07/26 08:42:53;;;;;;;2.60;1.85;;;;;;;-144.48;100.00;62369.91;5049559;28;20043;-66
2023/07/26 08:45:19;;;;;;;3.55;1.73;;;;;;;-144.48;100.00;62369.91;5048167;28;20029;-66
2023/07/26 08:47:46;;;;;;;13.13;1.65;;;;;;;-144.48;100.00;62369.91;5049697;28;20021;-67
2023/07/26 08:50:11;;;;;;;5.38;1.95;;;;;;;-144.48;100.00;62369.91;5048705;28;20037;-66
2023/07/26 08:52:37;;;;;;;2.22;1.10;;;;;;;-144.48;100.00;62369.91;5048843;28;20078;-67
2023/07/26 08:55:03;;;;;;;8.27;1.40;;;;;;;-144.48;100.00;62369.91;5048420;28;20048;-67
2023/07/26 08:57:29;;;;;;;4.72;1.40;;;;;;;-144.48;100.00;62369.91;5049004;28;20032;-67
2023/07/26 08:59:54;;;;;;;4.88;1.25;;;;;;;-144.48;100.00;62369.91;5048562;28;20024;-68
2023/07/26 09:02:21;;;;;;;3.60;1.20;;;;;;;-144.48;100.00;62369.91;5052935;28;20118;-66
2023/07/26 09:04:47;;;;;;;3.85;1.40;;;;;;;-144.48;100.00;62369.91;5051280;28;20422;-65
2023/07/26 09:07:13;;;;;;;9.13;1.33;;;;;;;-144.48;100.00;62369.91;5052076;28;20533;-65
2023/07/26 09:09:42;;;;;;;4.13;1.20;;;;;;;-144.48;100.00;62369.91;5030208;28;20136;-63
2023/07/26 09:12:07;;;;;;;13.13;1.60;;;;;;;-144.48;100.00;62369.91;5053121;28;20029;-67
2023/07/26 09:14:34;;;;;;;9.98;1.50;;;;;;;-144.48;100.00;62369.91;5051903;28;20029;-67
2023/07/26 09:17:02;;;;;;;4.75;1.50;;;;;;;-144.48;100.00;62369.91;5053257;28;20440;-64
2023/07/26 09:19:34;;;;;;;2.85;1.45;;;;;;;-144.48;100.00;62369.91;5052410;28;20017;-68
2023/07/26 09:22:02;;;;;;;7.40;1.75;;;;;;;-144.48;100.00;62369.91;5052795;28;20052;-66
2023/07/26 09:24:34;;;;;;;3.07;1.40;;;;;;;-144.48;100.00;62369.91;5052329;28;20115;-66
2023/07/26 09:27:06;;;;;;;6.68;1.90;;;;;;;-144.48;100.00;62369.91;5052908;28;20501;-67
2023/07/26 09:29:32;;;;;;;4.72;1.27;;;;;;;-144.48;100.00;62369.91;5052171;28;20101;-66
2023/07/26 09:31:57;;;;;;;6.25;1.30;;;;;;;-144.48;100.00;62369.91;5052761;28;20144;-66
2023/07/26 09:34:23;;;;;;;3.78;1.20;;;;;;;-144.48;100.00;62369.91;5045066;28;20108;-64
2023/07/26 09:36:50;;;;;;;3.35;1.38;;;;;;;-144.48;100.00;62369.91;5051510;28;20028;-67
2023/07/26 09:39:18;;;;;;;4.93;1.45;;;;;;;-144.48;100.00;62369.91;5052768;28;20017;-66
2023/07/26 09:41:47;;;;;;;3.55;1.40;;;;;;;-144.48;100.00;62369.91;5052621;28;20017;-64
2023/07/26 09:44:20;;;;;;;2.60;1.33;;;;;;;-144.48;100.00;62369.91;5033551;28;20029;-67
2023/07/26 09:46:49;;;;;;;5.97;1.60;;;;;;;-144.48;100.00;62369.91;5052615;28;20021;-66
2023/07/26 09:49:14;;;;;;;;;;;;;;;-144.48;100.00;62369.91;5052333;28;20247;-65
2023/07/26 09:51:40;;;;;;;5.00;1.42;;;;;;;-144.48;100.00;62369.91;5051840;28;20128;-66
2023/07/26 09:54:07;;;;;;;4.65;2.13;;;;;;;-144.48;100.00;62369.91;5051905;28;20043;-63
2023/07/26 09:56:33;;;;;;;3.20;1.38;;;;;;;-144.48;100.00;62369.91;5052183;28;20364;-68
2023/07/26 09:59:00;;;;;;;3.17;1.20;;;;;;;-144.48;100.00;62369.91;5051739;28;20027;-65
2023/07/26 10:01:29;;;;;;;2.00;1.23;;;;;;;-144.48;100.00;62369.91;5033936;28;20033;-65
2023/07/26 10:03:59;;;;;;;3.65;1.40;;;;;;;-144.48;100.00;62369.91;5050440;28;20020;-68
2023/07/26 10:06:29;;;;;;;6.60;1.50;;;;;;;-144.48;100.00;62369.91;5052009;28;20423;-67
2023/07/26 10:08:55;;;;;;;4.22;1.15;;;;;;;-144.48;100.00;62369.91;5046127;28;20561;-66
2023/07/26 10:11:22;;;;;;;4.93;1.52;;;;;;;-144.48;100.00;62369.91;5051945;28;20021;-65
2023/07/26 10:13:49;;;;;;;4.78;1.80;;;;;;;-144.48;100.00;62369.91;5049775;28;20039;-65
2023/07/26 10:16:14;;;;;;;4.43;1.38;;;;;;;-144.48;100.00;62369.91;5051767;28;20579;-67
2023/07/26 10:18:42;;;;;;;3.80;1.40;;;;;;;-144.48;100.00;62369.91;5052511;28;20112;-66
2023/07/26 10:21:10;;;;;;;3.70;1.45;;;;;;;-144.48;100.00;62369.91;5051206;28;20082;-66
2023/07/26 10:23:36;;;;;;;4.28;1.30;;;;;;;-144.48;100.00;62369.91;5050407;28;20111;-68
2023/07/26 10:26:04;;;;;;;11.07;1.45;;;;;;;-144.48;100.00;62369.91;5051703;28;20108;-63
2023/07/26 10:28:33;;;;;;;14.48;1.38;;;;;;;-144.48;100.00;62369.91;5051702;28;20052;-67
2023/07/26 10:31:00;;;;;;;2.85;1.30;;;;;;;-144.48;100.00;62369.91;5051255;28;20037;-67
2023/07/26 10:33:27;;;;;;;7.90;1.40;;;;;;;-144.48;100.00;62369.91;5051332;28;20104;-67
2023/07/26 10:35:53;;;;;;;4.20;1.35;;;;;;;-144.48;100.00;62369.91;5043103;28;20013;-61
2023/07/26 10:38:19;;;;;;;19.23;1.55;;;;;;;-144.48;100.00;62369.91;5050115;28;20020;-63
2023/07/26 10:40:45;;;;;;;4.60;1.45;;;;;;;-144.48;100.00;62369.91;5051381;28;20055;-64
2023/07/26 10:43:19;;;;;;;9.35;1.80;;;;;;;-144.48;100.00;62369.91;5050745;28;20048;-65
2023/07/26 10:45:46;;;;;;;8.65;1.85;;;;;;;-144.48;100.00;62369.91;5050588;28;20056;-67
2023/07/26 10:48:13;;;;;;;2.97;1.40;;;;;;;-144.48;100.00;62369.91;5051103;28;20028;-67
2023/07/26 10:50:38;;;;;;;14.18;1.90;;;;;;;-144.48;100.00;62369.91;5031903;28;20083;-67
2023/07/26 10:53:41;;;;;;;5.95;1.95;;;;;;;-144.48;100.00;62369.91;5050482;28;20115;-63
2023/07/26 10:56:26;;;;;;;2.67;1.40;;;;;;;-144.48;100.00;62369.91;5051650;28;20033;-66
2023/07/26 10:59:03;;;;;;;4.78;1.60;;;;;;;-144.48;100.00;62369.91;5050418;28;20048;-65
2023/07/26 11:01:40;;;;;;;4.38;1.63;;;;;;;-144.48;100.00;62369.91;5050687;28;20020;-68
2023/07/26 11:04:11;;;;;;;3.83;1.75;;;;;;;-144.48;100.00;62369.91;5049770;28;20024;-64